Time;durP1;ratioP1;P1;durP2;ratioP2;P2;SDS_P1;SDS_P2;PMS_P1;PMS_P2;Temp;Humidity;BMP_temperature;BMP_pressure;BME280_temperature;BME280_humidity;BME280_pressure;Samples;Min_cycle;Max_cycle;Signal;HPM_P1;HPM_P2
2023/05/24 00:01:27;;;;;;;19.02;8.25;;;8.70;99.90;;;;;;5155196;27;20113;-67
2023/05/24 00:03:57;;;;;;;19.05;7.75;;;8.70;99.90;;;;;;5154620;27;20039;-70
2023/05/24 00:06:25;;;;;;;20.55;7.80;;;8.70;99.90;;;;;;5155089;27;20043;-67
2023/05/24 00:08:51;;;;;;;15.23;6.57;;;8.70;99.90;;;;;;5154647;27;20051;-67
2023/05/24 00:11:17;;;;;;;16.98;7.10;;;8.70;99.90;;;;;;5155063;27;20042;-67
2023/05/24 00:13:43;;;;;;;14.38;7.00;;;8.70;99.90;;;;;;5154100;27;20504;-67
2023/05/24 00:16:08;;;;;;;14.68;6.20;;;8.70;99.90;;;;;;5153969;27;20045;-69
2023/05/24 00:18:39;;;;;;;19.70;7.88;;;8.70;99.90;;;;;;5119777;27;20057;-67
2023/05/24 00:21:09;;;;;;;17.73;7.28;;;8.70;99.90;;;;;;5155119;27;20046;-67
2023/05/24 00:23:37;;;;;;;10.48;6.78;;;8.70;99.90;;;;;;5154473;27;20043;-67
2023/05/24 00:26:03;;;;;;;17.15;7.30;;;8.70;99.90;;;;;;5136230;27;20043;-67
2023/05/24 00:28:30;;;;;;;11.45;6.45;;;8.70;99.90;;;;;;5119574;27;20055;-67
2023/05/24 00:30:59;;;;;;;15.68;6.88;;;8.70;99.90;;;;;;5119576;27;20427;-69
2023/05/24 00:33:25;;;;;;;20.58;9.15;;;8.70;99.90;;;;;;5135959;27;20456;-67
2023/05/24 00:35:55;;;;;;;16.77;6.60;;;8.70;99.90;;;;;;5154351;27;20074;-68
2023/05/24 00:38:22;;;;;;;20.70;8.32;;;8.70;99.90;;;;;;5154320;27;20046;-67
2023/05/24 00:40:48;;;;;;;14.70;8.15;;;8.70;99.90;;;;;;5154664;27;20047;-67
2023/05/24 00:43:14;;;;;;;19.60;7.82;;;8.70;99.90;;;;;;5154293;27;20047;-69
2023/05/24 00:45:40;;;;;;;15.20;6.95;;;8.70;99.90;;;;;;5135778;27;20061;-67
2023/05/24 00:48:06;;;;;;;12.95;7.00;;;8.70;99.90;;;;;;5154469;27;20042;-67
2023/05/24 00:50:32;;;;;;;16.80;7.53;;;8.60;99.90;;;;;;5154210;27;20046;-67
2023/05/24 00:53:01;;;;;;;10.43;6.05;;;8.60;99.90;;;;;;5154115;27;20050;-67
2023/05/24 00:55:27;;;;;;;14.30;6.22;;;8.60;99.90;;;;;;5154543;27;20053;-67
2023/05/24 00:57:56;;;;;;;15.00;7.10;;;8.60;99.90;;;;;;5154282;27;20110;-67
2023/05/24 01:00:22;;;;;;;18.95;7.55;;;8.60;99.90;;;;;;5136293;27;20062;-70
2023/05/24 01:02:49;;;;;;;20.98;9.15;;;8.60;99.90;;;;;;5154094;27;20121;-67
2023/05/24 01:05:16;;;;;;;15.73;7.97;;;8.60;99.90;;;;;;5154464;27;20055;-68
2023/05/24 01:08:17;;;;;;;10.38;5.88;;;8.60;99.90;;;;;;5154037;27;20139;-68
2023/05/24 01:11:02;;;;;;;18.90;7.32;;;8.60;99.90;;;;;;5135572;27;20053;-67
2023/05/24 01:14:01;;;;;;;17.17;7.72;;;8.60;99.90;;;;;;5154583;27;20046;-68
2023/05/24 01:16:45;;;;;;;17.10;7.97;;;8.60;99.90;;;;;;5154250;27;20473;-67
2023/05/24 01:19:42;;;;;;;17.48;7.22;;;8.60;99.90;;;;;;5153913;27;20054;-67
2023/05/24 01:22:41;;;;;;;13.85;6.70;;;8.50;99.90;;;;;;5154356;27;20126;-68
2023/05/24 01:25:31;;;;;;;18.27;7.63;;;8.50;99.90;;;;;;5153792;27;20046;-69
2023/05/24 01:27:58;;;;;;;19.73;7.78;;;8.60;99.90;;;;;;5157757;27;20046;-66
2023/05/24 01:30:26;;;;;;;20.23;8.15;;;8.60;99.90;;;;;;5157872;27;20451;-67
2023/05/24 01:32:52;;;;;;;15.73;6.82;;;8.60;99.90;;;;;;5139108;27;20371;-66
2023/05/24 01:35:18;;;;;;;18.88;7.93;;;8.60;99.90;;;;;;5158341;27;20078;-67
2023/05/24 01:37:43;;;;;;;21.17;8.27;;;8.60;99.90;;;;;;5157719;27;20516;-68
2023/05/24 01:40:10;;;;;;;14.35;7.57;;;8.60;99.90;;;;;;5157570;27;20424;-67
2023/05/24 01:42:58;;;;;;;25.77;7.75;;;8.60;99.90;;;;;;5157477;27;20416;-67
2023/05/24 01:45:37;;;;;;;15.30;7.10;;;8.60;99.90;;;;;;5157455;27;20042;-69
2023/05/24 01:48:24;;;;;;;24.83;8.73;;;8.60;99.90;;;;;;5158004;27;20043;-66
2023/05/24 01:51:02;;;;;;;19.35;8.18;;;8.70;99.90;;;;;;5157335;27;20103;-66
2023/05/24 01:53:33;;;;;;;16.65;6.45;;;8.70;99.90;;;;;;5157694;27;20089;-67
2023/05/24 01:56:01;;;;;;;13.98;6.32;;;8.80;99.90;;;;;;5157981;27;20082;-68
2023/05/24 01:58:30;;;;;;;16.02;7.35;;;8.80;99.90;;;;;;5157762;27;20042;-67
2023/05/24 02:00:56;;;;;;;10.30;6.10;;;8.90;99.90;;;;;;5156944;27;20129;-68
2023/05/24 02:03:22;;;;;;;20.65;7.80;;;8.90;99.90;;;;;;5157068;27;20043;-67
2023/05/24 02:05:47;;;;;;;11.45;6.20;;;8.90;99.90;;;;;;5157030;27;20052;-67
2023/05/24 02:08:13;;;;;;;16.55;7.22;;;8.90;99.90;;;;;;5157113;27;20435;-67
2023/05/24 02:10:39;;;;;;;21.02;6.88;;;8.80;99.90;;;;;;5157011;27;20417;-69
2023/05/24 02:13:06;;;;;;;20.38;7.78;;;8.80;99.90;;;;;;5157336;27;20102;-68
2023/05/24 02:15:32;;;;;;;18.08;6.50;;;8.80;99.90;;;;;;5138584;27;20039;-70
2023/05/24 02:18:00;;;;;;;11.18;5.75;;;8.80;99.90;;;;;;5156697;27;20467;-68
2023/05/24 02:20:29;;;;;;;17.48;7.93;;;8.70;99.90;;;;;;5121369;27;20091;-69
2023/05/24 02:22:56;;;;;;;13.48;6.50;;;8.70;99.90;;;;;;5139112;27;20130;-68
2023/05/24 02:25:22;;;;;;;15.00;6.35;;;8.70;99.90;;;;;;5138605;27;20451;-66
2023/05/24 02:27:48;;;;;;;10.63;6.03;;;8.60;99.90;;;;;;5156882;27;20086;-67
2023/05/24 02:30:13;;;;;;;17.05;7.30;;;8.60;99.90;;;;;;5156498;27;20121;-68
2023/05/24 02:32:40;;;;;;;20.92;9.05;;;8.60;99.90;;;;;;5156475;27;20423;-67
2023/05/24 02:35:06;;;;;;;15.60;6.43;;;8.50;99.90;;;;;;5156119;27;20148;-66
2023/05/24 02:37:32;;;;;;;17.25;6.45;;;8.50;99.90;;;;;;5137494;27;20039;-66
2023/05/24 02:39:58;;;;;;;20.13;8.57;;;8.50;99.90;;;;;;5156465;27;20091;-68
2023/05/24 02:42:23;;;;;;;15.77;7.30;;;8.90;99.90;;;;;;5156526;27;20054;-68
2023/05/24 02:44:51;;;;;;;20.98;7.85;;;8.50;99.90;;;;;;5156113;27;20463;-68
2023/05/24 02:47:17;;;;;;;13.73;7.30;;;8.50;99.90;;;;;;5137834;27;20582;-68
2023/05/24 02:49:43;;;;;;;14.18;6.65;;;8.50;99.90;;;;;;5156875;27;20050;-68
2023/05/24 02:52:09;;;;;;;15.82;7.60;;;8.50;99.90;;;;;;5156786;27;20439;-69
2023/05/24 02:54:35;;;;;;;15.85;6.75;;;8.60;99.90;;;;;;5156102;27;20041;-68
2023/05/24 02:57:01;;;;;;;22.13;8.15;;;8.60;99.90;;;;;;5156079;27;20039;-68
2023/05/24 02:59:27;;;;;;;16.42;7.97;;;8.60;99.90;;;;;;5155939;27;20518;-67
2023/05/24 03:01:53;;;;;;;14.90;6.55;;;8.70;99.90;;;;;;5156273;27;20047;-67
2023/05/24 03:04:18;;;;;;;19.60;8.38;;;8.80;99.90;;;;;;5156274;27;20058;-68
2023/05/24 03:06:44;;;;;;;14.63;6.38;;;8.80;99.90;;;;;;5156190;27;20103;-68
2023/05/24 03:09:10;;;;;;;18.00;7.65;;;8.90;99.90;;;;;;5156245;27;20090;-67
2023/05/24 03:11:36;;;;;;;17.73;7.63;;;9.00;99.90;;;;;;5155699;27;20061;-68
2023/05/24 03:14:01;;;;;;;15.68;7.05;;;9.00;99.90;;;;;;5137591;27;20096;-67
2023/05/24 03:16:28;;;;;;;14.35;6.47;;;9.00;99.90;;;;;;5155596;27;20043;-67
2023/05/24 03:18:55;;;;;;;15.95;7.32;;;9.10;99.90;;;;;;5137423;27;20054;-67
2023/05/24 03:21:22;;;;;;;9.35;5.88;;;9.10;99.90;;;;;;5155469;27;20054;-66
2023/05/24 03:23:48;;;;;;;13.77;6.43;;;9.20;99.90;;;;;;5155888;27;20103;-67
2023/05/24 03:26:13;;;;;;;19.55;6.50;;;9.20;99.90;;;;;;5155080;27;20038;-68
2023/05/24 03:28:42;;;;;;;21.42;6.57;;;9.20;99.90;;;;;;5155916;27;20086;-67
2023/05/24 03:31:07;;;;;;;14.63;7.38;;;9.30;99.90;;;;;;5155762;27;20047;-67
2023/05/24 03:33:33;;;;;;;20.98;7.03;;;9.30;99.90;;;;;;5154936;27;20060;-68
2023/05/24 03:35:59;;;;;;;14.57;7.05;;;9.40;99.90;;;;;;5154881;27;20099;-66
2023/05/24 03:38:25;;;;;;;10.75;5.32;;;9.40;99.90;;;;;;5136892;27;20084;-66
2023/05/24 03:40:50;;;;;;;18.30;7.32;;;9.40;99.90;;;;;;5155077;27;20057;-66
2023/05/24 03:43:17;;;;;;;13.05;6.25;;;9.40;99.90;;;;;;5155628;27;20047;-69
2023/05/24 03:45:42;;;;;;;20.42;7.70;;;9.40;99.90;;;;;;5155343;27;20118;-66
2023/05/24 03:48:08;;;;;;;14.63;5.97;;;9.30;99.90;;;;;;5155595;27;20452;-66
2023/05/24 03:50:34;;;;;;;15.60;5.70;;;9.40;99.90;;;;;;5154084;27;20506;-66
2023/05/24 03:53:00;;;;;;;10.02;5.70;;;9.40;99.90;;;;;;5155202;27;20043;-66
2023/05/24 03:55:25;;;;;;;13.02;5.68;;;9.30;99.90;;;;;;5137236;27;20371;-66
2023/05/24 03:57:51;;;;;;;14.50;5.88;;;9.30;99.90;;;;;;5137166;27;20043;-67
2023/05/24 04:00:17;;;;;;;18.10;7.07;;;9.40;99.90;;;;;;5119680;27;20501;-66
2023/05/24 04:02:42;;;;;;;14.80;6.13;;;9.40;99.90;;;;;;5154846;27;20039;-66
2023/05/24 04:05:09;;;;;;;16.52;5.97;;;9.50;99.90;;;;;;5154729;27;20497;-67
2023/05/24 04:07:38;;;;;;;15.38;6.03;;;9.50;99.90;;;;;;5155204;27;20077;-67
2023/05/24 04:10:05;;;;;;;14.35;6.00;;;9.50;99.90;;;;;;5155029;27;20562;-68
2023/05/24 04:12:32;;;;;;;14.88;6.65;;;9.50;99.90;;;;;;5154397;27;20043;-68
2023/05/24 04:14:58;;;;;;;12.27;6.93;;;9.60;99.90;;;;;;5136089;27;20045;-68
2023/05/24 04:17:24;;;;;;;18.70;6.68;;;9.60;99.90;;;;;;5154388;27;20043;-67
2023/05/24 04:19:50;;;;;;;10.15;5.75;;;9.70;99.90;;;;;;5154922;27;20042;-68
2023/05/24 04:22:17;;;;;;;13.10;6.20;;;9.70;99.90;;;;;;5154553;27;20050;-68
2023/05/24 04:24:46;;;;;;;15.75;6.07;;;9.80;99.90;;;;;;5154137;27;20516;-67
2023/05/24 04:27:11;;;;;;;12.20;6.05;;;9.80;99.90;;;;;;5154610;27;20463;-67
2023/05/24 04:29:39;;;;;;;11.38;5.47;;;9.90;99.90;;;;;;5154329;27;20063;-69
2023/05/24 04:32:05;;;;;;;15.32;6.25;;;9.90;99.90;;;;;;5154322;27;20125;-69
2023/05/24 04:34:34;;;;;;;16.63;7.07;;;9.90;99.90;;;;;;5118885;27;20142;-69
2023/05/24 04:37:01;;;;;;;18.67;8.15;;;10.00;99.90;;;;;;5154577;27;20113;-67
2023/05/24 04:39:28;;;;;;;14.80;5.88;;;10.10;99.90;;;;;;5135752;27;20056;-68
2023/05/24 04:41:55;;;;;;;11.02;5.70;;;10.20;99.90;;;;;;5154527;27;20100;-69
2023/05/24 04:44:20;;;;;;;13.07;6.20;;;10.20;99.90;;;;;;5135672;27;20118;-68
2023/05/24 04:46:46;;;;;;;13.48;5.75;;;10.20;99.90;;;;;;5154378;27;20085;-68
2023/05/24 04:49:12;;;;;;;11.90;5.88;;;10.30;99.90;;;;;;5154167;27;20046;-67
2023/05/24 04:51:38;;;;;;;13.65;6.28;;;10.40;99.90;;;;;;5154066;27;20074;-70
2023/05/24 04:54:07;;;;;;;15.30;6.03;;;10.50;99.90;;;;;;5136187;27;20077;-70
2023/05/24 04:56:34;;;;;;;15.68;6.63;;;10.60;99.90;;;;;;5154168;27;20075;-68
2023/05/24 04:59:01;;;;;;;11.38;5.95;;;10.60;99.90;;;;;;5154293;27;20051;-68
2023/05/24 05:01:26;;;;;;;15.60;6.80;;;10.50;99.90;;;;;;5155753;27;20038;-67
2023/05/24 05:03:52;;;;;;;17.83;6.53;;;10.50;99.90;;;;;;5157711;27;20514;-68
2023/05/24 05:06:18;;;;;;;15.02;5.95;;;10.60;99.90;;;;;;5158089;27;20043;-68
2023/05/24 05:08:43;;;;;;;16.00;6.60;;;10.60;99.90;;;;;;5139926;27;20049;-70
2023/05/24 05:11:09;;;;;;;15.32;6.30;;;10.60;99.90;;;;;;5157825;27;20505;-67
2023/05/24 05:13:35;;;;;;;15.38;5.72;;;10.60;99.90;;;;;;5157895;27;20049;-70
2023/05/24 05:16:01;;;;;;;11.52;6.18;;;10.60;99.90;;;;;;5158435;27;20051;-68
2023/05/24 05:18:27;;;;;;;13.07;6.15;;;10.60;99.90;;;;;;5139777;27;20465;-69
2023/05/24 05:20:52;;;;;;;14.23;6.30;;;10.60;99.90;;;;;;5158195;27;20125;-69
2023/05/24 05:23:18;;;;;;;14.88;6.43;;;10.60;99.90;;;;;;5157753;27;20356;-68
2023/05/24 05:25:44;;;;;;;12.73;5.45;;;10.60;99.90;;;;;;5158513;27;20119;-67
2023/05/24 05:28:09;;;;;;;18.55;5.32;;;10.70;99.90;;;;;;5157890;27;20443;-68
2023/05/24 05:30:35;;;;;;;17.52;5.95;;;10.70;99.90;;;;;;5157507;27;20039;-68
2023/05/24 05:33:01;;;;;;;15.60;6.35;;;10.80;99.90;;;;;;5139474;27;20046;-71
2023/05/24 05:35:26;;;;;;;18.50;6.75;;;10.80;99.90;;;;;;5157082;27;20054;-69
2023/05/24 05:37:52;;;;;;;13.50;6.68;;;10.90;99.90;;;;;;5157786;27;20467;-70
2023/05/24 05:40:18;;;;;;;13.98;5.72;;;11.00;99.90;;;;;;5157431;27;20043;-68
2023/05/24 05:42:46;;;;;;;17.50;6.05;;;11.20;99.90;;;;;;5138941;27;20052;-69
2023/05/24 05:45:11;;;;;;;13.50;5.80;;;11.40;99.90;;;;;;5157383;27;20051;-68
2023/05/24 05:47:37;;;;;;;18.67;6.28;;;11.50;99.90;;;;;;5157146;27;20104;-69
2023/05/24 05:50:03;;;;;;;13.43;6.00;;;11.70;99.90;;;;;;5157378;27;20042;-68
2023/05/24 05:52:28;;;;;;;18.98;7.00;;;11.90;99.90;;;;;;5157962;27;20039;-69
2023/05/24 05:54:54;;;;;;;14.18;6.80;;;12.10;99.90;;;;;;5138712;27;20546;-69
2023/05/24 05:57:22;;;;;;;19.27;5.82;;;12.20;99.90;;;;;;5157227;27;20050;-67
2023/05/24 05:59:49;;;;;;;14.13;5.88;;;12.30;99.90;;;;;;5139196;27;20055;-68
2023/05/24 06:02:15;;;;;;;14.68;5.82;;;12.40;99.90;;;;;;5157120;27;20062;-68
2023/05/24 06:04:40;;;;;;;11.88;5.90;;;12.50;99.90;;;;;;5157166;27;20055;-68
2023/05/24 06:07:06;;;;;;;18.92;6.88;;;12.60;99.90;;;;;;5138487;27;20038;-70
2023/05/24 06:09:32;;;;;;;13.80;6.03;;;12.70;99.90;;;;;;5139001;27;20031;-68
2023/05/24 06:11:57;;;;;;;16.85;6.10;;;12.60;99.90;;;;;;5156795;27;20039;-69
2023/05/24 06:14:25;;;;;;;15.13;6.60;;;12.50;99.90;;;;;;5156322;27;20427;-68
2023/05/24 06:16:53;;;;;;;20.90;7.13;;;12.50;99.90;;;;;;5157414;27;20055;-68
2023/05/24 06:19:19;;;;;;;17.40;5.72;;;12.60;99.90;;;;;;5156756;27;20049;-68
2023/05/24 06:21:49;;;;;;;15.95;5.90;;;12.60;99.90;;;;;;5156719;27;20057;-68
2023/05/24 06:24:19;;;;;;;12.35;6.20;;;12.60;99.90;;;;;;5156592;27;20142;-69
2023/05/24 06:26:46;;;;;;;18.05;7.03;;;12.60;99.90;;;;;;5137940;27;20038;-68
2023/05/24 06:29:12;;;;;;;16.33;6.70;;;12.70;99.90;;;;;;5156574;27;20069;-67
2023/05/24 06:31:38;;;;;;;15.48;5.47;;;12.70;99.90;;;;;;5156621;27;20085;-69
2023/05/24 06:34:04;;;;;;;15.15;6.18;;;12.90;99.90;;;;;;5156392;27;20059;-70
2023/05/24 06:36:32;;;;;;;16.80;6.47;;;13.10;99.90;;;;;;5138486;27;20049;-68
2023/05/24 06:38:58;;;;;;;18.48;5.50;;;13.10;99.90;;;;;;5156476;27;20051;-68
2023/05/24 06:41:25;;;;;;;13.32;5.95;;;13.10;99.90;;;;;;5121038;27;20047;-68
2023/05/24 06:43:51;;;;;;;12.77;4.75;;;13.00;99.90;;;;;;5156582;27;20493;-69
2023/05/24 06:46:17;;;;;;;11.95;5.50;;;12.80;99.90;;;;;;5137752;27;20042;-67
2023/05/24 06:48:42;;;;;;;11.05;4.85;;;12.70;99.90;;;;;;5137786;27;20042;-67
2023/05/24 06:51:08;;;;;;;10.07;4.28;;;12.70;99.90;;;;;;5138250;27;20047;-67
2023/05/24 06:53:34;;;;;;;12.13;5.13;;;13.10;99.90;;;;;;5156394;27;20094;-69
2023/05/24 06:55:59;;;;;;;14.73;5.03;;;13.60;99.90;;;;;;5156092;27;20054;-68
2023/05/24 06:58:25;;;;;;;10.65;5.47;;;14.20;99.90;;;;;;5156529;27;20094;-69
2023/05/24 07:00:51;;;;;;;13.57;4.25;;;14.70;99.90;;;;;;5156014;27;20498;-67
2023/05/24 07:03:17;;;;;;;8.98;4.03;;;15.00;99.90;;;;;;5156275;27;20050;-65
2023/05/24 07:05:43;;;;;;;9.15;3.95;;;15.00;99.90;;;;;;5137273;27;20050;-68
2023/05/24 07:08:09;;;;;;;8.55;4.03;;;14.90;99.90;;;;;;5155664;27;20049;-69
2023/05/24 07:10:35;;;;;;;9.23;3.88;;;14.60;99.90;;;;;;5155921;27;20359;-68
2023/05/24 07:13:00;;;;;;;12.82;4.10;;;14.50;99.90;;;;;;5137252;27;20056;-68
2023/05/24 07:15:26;;;;;;;8.10;4.32;;;14.00;99.90;;;;;;5155817;27;20122;-68
2023/05/24 07:17:52;;;;;;;11.98;5.53;;;13.90;99.90;;;;;;5155991;27;20498;-70
2023/05/24 07:20:18;;;;;;;7.20;3.63;;;13.70;99.90;;;;;;5155361;27;20042;-70
2023/05/24 07:22:43;;;;;;;16.30;4.53;;;14.40;99.90;;;;;;5155718;27;20128;-70
2023/05/24 07:25:09;;;;;;;10.45;3.70;;;14.50;99.90;;;;;;5155535;27;20069;-68
2023/05/24 07:27:35;;;;;;;12.05;3.85;;;14.30;99.90;;;;;;5155210;27;20039;-70
2023/05/24 07:30:03;;;;;;;11.57;3.88;;;14.20;99.90;;;;;;5155355;27;20043;-67
2023/05/24 07:32:29;;;;;;;10.38;3.67;;;15.30;99.90;;;;;;5155468;27;20089;-68
2023/05/24 07:34:55;;;;;;;9.98;3.67;;;15.50;99.90;;;;;;5154706;27;20050;-69
2023/05/24 07:37:22;;;;;;;10.70;4.00;;;15.00;99.90;;;;;;5154748;27;20046;-68
2023/05/24 07:39:50;;;;;;;9.55;4.10;;;14.40;99.90;;;;;;5155676;27;20042;-68
2023/05/24 07:42:15;;;;;;;8.38;4.18;;;14.00;99.90;;;;;;5155026;27;20042;-68
2023/05/24 07:44:41;;;;;;;10.48;3.55;;;14.60;99.90;;;;;;5154708;27;20046;-68
2023/05/24 07:47:07;;;;;;;9.73;3.45;;;15.90;99.90;;;;;;5136123;27;20043;-65
2023/05/24 07:49:32;;;;;;;5.68;3.05;;;16.80;99.90;;;;;;5136423;27;20043;-67
2023/05/24 07:51:59;;;;;;;8.30;4.00;;;16.10;97.40;;;;;;5154930;27;20047;-66
2023/05/24 07:54:25;;;;;;;8.20;3.47;;;15.30;99.40;;;;;;5154854;27;20118;-68
2023/05/24 07:56:51;;;;;;;12.13;3.95;;;15.00;99.90;;;;;;5136539;27;20131;-67
2023/05/24 07:59:17;;;;;;;10.02;3.58;;;15.80;99.90;;;;;;5136077;27;20055;-67
2023/05/24 08:01:43;;;;;;;6.88;3.45;;;16.30;98.80;;;;;;5136035;27;20443;-67
2023/05/24 08:04:09;;;;;;;8.95;3.83;;;16.30;99.60;;;;;;5154654;27;20043;-68
2023/05/24 08:06:35;;;;;;;8.15;4.15;;;16.90;99.40;;;;;;5154654;27;20076;-68
2023/05/24 08:09:04;;;;;;;6.88;3.22;;;17.40;97.80;;;;;;5154847;27;20052;-67
2023/05/24 08:11:30;;;;;;;6.32;3.08;;;18.20;96.30;;;;;;5136334;27;20095;-69
2023/05/24 08:13:55;;;;;;;8.38;3.47;;;18.30;98.20;;;;;;5154877;27;20046;-68
2023/05/24 08:16:21;;;;;;;8.55;3.72;;;18.10;98.00;;;;;;5154185;27;20436;-66
2023/05/24 08:18:47;;;;;;;11.00;4.00;;;17.40;97.90;;;;;;5154222;27;20050;-66
2023/05/24 08:21:13;;;;;;;9.25;4.40;;;16.60;96.20;;;;;;5155133;27;20121;-66
2023/05/24 08:23:38;;;;;;;7.45;3.35;;;15.90;98.20;;;;;;5135916;27;20488;-67
2023/05/24 08:26:04;;;;;;;10.80;3.90;;;15.60;98.70;;;;;;5154244;27;20123;-68
2023/05/24 08:28:30;;;;;;;8.25;3.80;;;16.10;99.70;;;;;;5118947;27;20035;-67
2023/05/24 08:30:57;;;;;;;9.85;3.70;;;16.60;98.40;;;;;;5154306;27;20463;-67
2023/05/24 08:33:23;;;;;;;6.82;3.13;;;16.50;97.30;;;;;;5154108;27;20050;-67
2023/05/24 08:35:51;;;;;;;7.55;4.45;;;16.30;97.60;;;;;;5153864;27;20104;-68
2023/05/24 08:38:17;;;;;;;7.18;3.25;;;15.80;95.60;;;;;;5154459;27;20038;-66
2023/05/24 08:40:43;;;;;;;6.55;2.85;;;15.60;98.00;;;;;;5136165;27;20051;-62
2023/05/24 08:43:11;;;;;;;7.28;3.35;;;15.40;98.30;;;;;;5135868;27;20379;-67
2023/05/24 08:45:38;;;;;;;6.50;2.78;;;15.40;97.80;;;;;;5154026;27;20176;-66
2023/05/24 08:48:07;;;;;;;5.05;2.92;;;16.50;98.20;;;;;;5153954;27;20041;-70
2023/05/24 08:50:34;;;;;;;10.77;3.13;;;17.80;95.00;;;;;;5136255;27;20082;-66
2023/05/24 08:53:03;;;;;;;10.20;3.28;;;17.80;96.50;;;;;;5136229;27;20087;-66
2023/05/24 08:55:30;;;;;;;5.70;2.58;;;16.80;95.70;;;;;;5153977;27;20117;-67
2023/05/24 08:57:57;;;;;;;8.65;3.25;;;16.80;96.50;;;;;;5135517;27;20054;-69
2023/05/24 09:00:23;;;;;;;7.72;4.22;;;17.40;94.70;;;;;;5153905;27;20467;-67
2023/05/24 09:02:49;;;;;;;5.93;2.92;;;17.30;95.30;;;;;;5153561;27;20050;-66
2023/05/24 09:05:16;;;;;;;8.35;3.22;;;16.90;96.20;;;;;;5154068;27;20072;-68
2023/05/24 09:07:43;;;;;;;8.45;2.90;;;16.30;96.20;;;;;;5118268;27;20459;-66
2023/05/24 09:10:10;;;;;;;8.65;2.75;;;16.50;95.70;;;;;;5154198;27;20082;-66
2023/05/24 09:12:37;;;;;;;8.70;4.00;;;16.60;96.50;;;;;;5135846;27;20055;-67
2023/05/24 09:15:04;;;;;;;6.10;3.05;;;16.40;95.40;;;;;;5154042;27;20130;-66
2023/05/24 09:17:30;;;;;;;6.75;3.30;;;16.30;96.60;;;;;;5153980;27;20115;-66
2023/05/24 09:19:58;;;;;;;8.20;3.03;;;16.30;96.10;;;;;;5154000;27;20045;-66
2023/05/24 09:22:27;;;;;;;8.48;3.33;;;16.30;96.00;;;;;;5135530;27;20122;-66
2023/05/24 09:24:56;;;;;;;6.40;2.85;;;16.60;94.90;;;;;;5136076;27;20043;-68
2023/05/24 09:27:22;;;;;;;6.13;3.72;;;16.80;96.30;;;;;;5154311;27;20076;-66
2023/05/24 09:29:50;;;;;;;7.47;3.10;;;16.40;96.50;;;;;;5154313;27;20422;-67
2023/05/24 09:32:17;;;;;;;13.88;4.72;;;16.20;96.90;;;;;;5154124;27;20111;-68
2023/05/24 09:34:47;;;;;;;4.65;3.33;;;15.90;96.70;;;;;;5135126;27;20495;-67
2023/05/24 09:37:15;;;;;;;9.88;3.30;;;15.80;97.60;;;;;;5153758;27;20107;-66
2023/05/24 09:39:46;;;;;;;6.07;3.58;;;15.70;97.90;;;;;;5153304;27;20475;-67
2023/05/24 09:42:25;;;;;;;4.93;3.20;;;16.20;98.10;;;;;;5153480;27;20050;-68
2023/05/24 09:45:07;;;;;;;9.02;3.58;;;16.40;97.10;;;;;;5153453;27;20134;-67
2023/05/24 09:47:39;;;;;;;13.88;3.67;;;16.10;97.60;;;;;;5155576;27;20074;-65
2023/05/24 09:50:11;;;;;;;7.38;3.97;;;15.80;98.00;;;;;;5157396;27;20042;-66
2023/05/24 09:52:37;;;;;;;10.10;3.90;;;15.80;98.20;;;;;;5157807;27;20076;-66
2023/05/24 09:55:18;;;;;;;11.70;4.47;;;16.10;98.40;;;;;;5157303;27;20043;-66
2023/05/24 09:57:48;;;;;;;9.20;4.35;;;16.20;97.70;;;;;;5138849;27;20493;-68
2023/05/24 10:00:20;;;;;;;6.50;3.33;;;16.30;97.70;;;;;;5157513;27;20416;-68
2023/05/24 10:03:00;;;;;;;8.03;3.93;;;16.50;98.40;;;;;;5157507;27;20117;-66
2023/05/24 10:05:26;;;;;;;6.10;3.50;;;16.50;97.80;;;;;;5157268;27;20808;-67
2023/05/24 10:07:52;;;;;;;7.43;4.03;;;16.50;98.40;;;;;;5156920;27;20035;-66
2023/05/24 10:10:18;;;;;;;9.00;3.28;;;16.50;98.50;;;;;;5138144;27;20035;-67
2023/05/24 10:12:45;;;;;;;9.30;3.42;;;16.10;98.60;;;;;;5156843;27;20125;-66
2023/05/24 10:15:11;;;;;;;9.18;3.90;;;15.90;98.60;;;;;;5157332;27;20074;-68
2023/05/24 10:17:37;;;;;;;9.48;3.75;;;15.80;99.00;;;;;;5138508;27;20372;-66
2023/05/24 10:20:07;;;;;;;7.57;3.65;;;15.90;98.90;;;;;;5138279;27;20054;-66
2023/05/24 10:22:42;;;;;;;9.32;4.53;;;16.30;98.20;;;;;;5156828;27;20078;-67
2023/05/24 10:25:15;;;;;;;5.32;3.60;;;16.70;97.80;;;;;;5156675;27;20050;-68
2023/05/24 10:27:42;;;;;;;8.13;2.90;;;17.10;97.40;;;;;;5139179;27;20042;-67
2023/05/24 10:30:18;;;;;;;8.07;3.00;;;17.20;98.20;;;;;;5157053;27;20134;-67
2023/05/24 10:32:46;;;;;;;7.68;3.25;;;17.70;98.00;;;;;;5157086;27;20049;-67
2023/05/24 10:35:17;;;;;;;5.40;2.78;;;17.30;96.70;;;;;;5157201;27;20059;-67
2023/05/24 10:37:46;;;;;;;4.03;2.65;;;17.60;97.90;;;;;;5138613;27;20126;-65
2023/05/24 10:40:19;;;;;;;3.95;2.65;;;17.40;96.70;;;;;;5156281;27;20045;-66
2023/05/24 10:42:47;;;;;;;8.38;3.88;;;17.10;95.10;;;;;;5156659;27;20075;-67
2023/05/24 10:45:37;;;;;;;7.00;2.50;;;16.80;96.50;;;;;;5156946;27;20043;-67
2023/05/24 10:48:12;;;;;;;6.43;3.28;;;16.50;95.90;;;;;;5137768;27;20111;-67
2023/05/24 10:50:39;;;;;;;6.22;2.88;;;16.40;96.60;;;;;;5156135;27;20124;-67
2023/05/24 10:53:13;;;;;;;5.10;2.72;;;16.30;96.70;;;;;;5138465;27;20403;-68
2023/05/24 10:55:58;;;;;;;10.32;3.53;;;16.20;95.50;;;;;;5156499;27;20130;-67
2023/05/24 10:58:34;;;;;;;5.40;2.65;;;16.00;96.50;;;;;;5155604;27;20483;-66
2023/05/24 11:01:00;;;;;;;6.72;2.72;;;16.10;96.70;;;;;;5156213;27;20111;-66
2023/05/24 11:03:32;;;;;;;7.90;3.65;;;16.10;97.20;;;;;;5156265;27;20099;-67
2023/05/24 11:05:58;;;;;;;6.90;3.30;;;15.80;97.10;;;;;;5137973;27;20115;-67
2023/05/24 11:08:32;;;;;;;6.72;3.42;;;15.60;98.00;;;;;;5137838;27;20080;-67
2023/05/24 11:11:12;;;;;;;10.18;3.75;;;15.20;99.00;;;;;;5137549;27;20074;-67
2023/05/24 11:13:38;;;;;;;7.05;3.92;;;14.90;99.90;;;;;;5155310;27;20050;-69
2023/05/24 11:16:05;;;;;;;10.43;4.38;;;14.80;99.90;;;;;;5155596;27;20094;-66
2023/05/24 11:18:31;;;;;;;9.18;3.60;;;14.90;99.90;;;;;;5155528;27;20062;-68
2023/05/24 11:21:02;;;;;;;8.18;4.13;;;14.80;99.90;;;;;;5155924;27;20039;-66
2023/05/24 11:23:28;;;;;;;11.80;4.13;;;14.70;99.90;;;;;;5155313;27;20046;-66
2023/05/24 11:25:55;;;;;;;13.48;5.85;;;14.60;99.90;;;;;;5155641;27;20046;-66
2023/05/24 11:28:22;;;;;;;8.90;4.35;;;14.60;99.90;;;;;;5155642;27;20034;-66
2023/05/24 11:30:48;;;;;;;9.10;4.25;;;14.80;99.90;;;;;;5155270;27;20054;-68
2023/05/24 11:33:18;;;;;;;7.75;4.80;;;14.80;99.90;;;;;;5155327;27;20042;-68
2023/05/24 11:35:51;;;;;;;8.20;4.05;;;14.90;99.90;;;;;;5155535;27;20058;-66
2023/05/24 11:38:19;;;;;;;6.93;3.67;;;15.00;99.90;;;;;;5137024;27;20114;-69
2023/05/24 11:40:47;;;;;;;14.63;4.60;;;15.00;99.90;;;;;;5155036;27;20052;-67
2023/05/24 11:43:17;;;;;;;7.78;4.40;;;14.70;99.90;;;;;;5154674;27;20483;-67
2023/05/24 11:45:48;;;;;;;12.32;5.45;;;14.70;99.90;;;;;;5155329;27;20043;-66
2023/05/24 11:48:15;;;;;;;9.65;4.05;;;14.90;99.90;;;;;;5155241;27;20193;-69
2023/05/24 11:50:43;;;;;;;17.60;4.82;;;15.00;99.90;;;;;;5155116;27;20034;-66
2023/05/24 11:53:10;;;;;;;8.27;4.38;;;15.00;99.90;;;;;;5154800;27;20042;-67
2023/05/24 11:55:36;;;;;;;9.50;4.35;;;15.10;99.90;;;;;;5154848;27;20070;-68
2023/05/24 11:58:05;;;;;;;14.07;4.60;;;15.30;99.90;;;;;;5137039;27;20439;-67
2023/05/24 12:00:31;;;;;;;11.38;3.97;;;15.40;99.90;;;;;;5154646;27;20042;-69
2023/05/24 12:03:00;;;;;;;8.73;4.07;;;15.50;99.90;;;;;;5136061;27;20055;-66
2023/05/24 12:05:30;;;;;;;9.73;4.07;;;15.60;99.90;;;;;;5154608;27;20123;-69
2023/05/24 12:08:07;;;;;;;11.07;4.15;;;15.70;99.90;;;;;;5154424;27;20130;-68
2023/05/24 12:10:38;;;;;;;10.20;4.35;;;15.30;99.90;;;;;;5135604;27;20103;-67
2023/05/24 12:13:08;;;;;;;8.18;4.40;;;15.10;99.90;;;;;;5154404;27;20042;-67
2023/05/24 12:15:34;;;;;;;7.70;3.83;;;15.10;99.90;;;;;;5154807;27;20050;-67
2023/05/24 12:17:59;;;;;;;10.20;4.45;;;14.90;99.90;;;;;;5119022;27;20042;-66
2023/05/24 12:20:28;;;;;;;8.80;4.20;;;14.90;99.90;;;;;;5136145;27;20074;-67
2023/05/24 12:22:55;;;;;;;8.63;4.60;;;15.00;99.90;;;;;;5154433;27;20051;-67
2023/05/24 12:25:22;;;;;;;7.75;4.38;;;15.00;99.90;;;;;;5135772;27;20042;-66
2023/05/24 12:27:52;;;;;;;6.88;4.15;;;14.90;99.90;;;;;;5154064;27;20068;-67
2023/05/24 12:30:24;;;;;;;14.05;4.68;;;15.00;99.90;;;;;;5154804;27;20043;-65
2023/05/24 12:32:53;;;;;;;9.13;4.47;;;15.10;99.90;;;;;;5154327;27;20046;-64
2023/05/24 12:35:19;;;;;;;12.07;4.72;;;15.30;99.90;;;;;;5154104;27;20088;-65
2023/05/24 12:37:45;;;;;;;9.80;4.32;;;15.30;99.90;;;;;;5154232;27;20050;-68
2023/05/24 12:40:22;;;;;;;10.05;4.43;;;15.20;99.90;;;;;;5153929;27;20051;-68
2023/05/24 12:42:58;;;;;;;8.77;3.70;;;15.20;99.90;;;;;;5154026;27;20051;-68
2023/05/24 12:45:25;;;;;;;12.95;4.22;;;15.20;99.90;;;;;;5154165;27;20065;-67
2023/05/24 12:47:54;;;;;;;12.10;3.95;;;15.30;99.90;;;;;;5154120;27;20051;-68